sensor_id;sensor_type;location;lat;lon;timestamp;pressure;altitude;pressure_sealevel;temperature;humidity
6345;BME280;3205;42.666;23.264;2024-02-15T00:00:10;94827.47;;;4.90;100.00
6345;BME280;3205;42.666;23.264;2024-02-15T00:02:37;94824.84;;;4.90;100.00
6345;BME280;3205;42.666;23.264;2024-02-15T00:05:05;94826.47;;;4.86;100.00
6345;BME280;3205;42.666;23.264;2024-02-15T00:07:31;94822.03;;;4.87;100.00
6345;BME280;3205;42.666;23.264;2024-02-15T00:09:57;94827.47;;;4.90;100.00
6345;BME280;3205;42.666;23.264;2024-02-15T00:12:24;94824.16;;;4.85;100.00
6345;BME280;3205;42.666;23.264;2024-02-15T00:14:51;94817.75;;;4.91;100.00
6345;BME280;3205;42.666;23.264;2024-02-15T00:17:17;94818.16;;;4.84;100.00
6345;BME280;3205;42.666;23.264;2024-02-15T00:19:44;94822.72;;;4.92;100.00
6345;BME280;3205;42.666;23.264;2024-02-15T00:22:12;94826.41;;;4.91;100.00
6345;BME280;3205;42.666;23.264;2024-02-15T00:24:38;94832.13;;;4.93;100.00
6345;BME280;3205;42.666;23.264;2024-02-15T00:27:05;94831.16;;;4.89;100.00
6345;BME280;3205;42.666;23.264;2024-02-15T00:29:32;94827.47;;;4.90;100.00
6345;BME280;3205;42.666;23.264;2024-02-15T00:31:59;94835.88;;;4.87;100.00
6345;BME280;3205;42.666;23.264;2024-02-15T00:34:26;94836.69;;;4.88;100.00
6345;BME280;3205;42.666;23.264;2024-02-15T00:36:53;94836.94;;;4.86;100.00
6345;BME280;3205;42.666;23.264;2024-02-15T00:39:19;94837.38;;;4.93;100.00
6345;BME280;3205;42.666;23.264;2024-02-15T00:41:45;94834.63;;;4.85;100.00
6345;BME280;3205;42.666;23.264;2024-02-15T00:44:11;94839.31;;;4.88;100.00
6345;BME280;3205;42.666;23.264;2024-02-15T00:46:38;94834.84;;;4.88;100.00
6345;BME280;3205;42.666;23.264;2024-02-15T00:49:07;94831.78;;;4.81;100.00
6345;BME280;3205;42.666;23.264;2024-02-15T00:51:33;94836.38;;;4.89;100.00
6345;BME280;3205;42.666;23.264;2024-02-15T00:54:01;94836.94;;;4.86;100.00
6345;BME280;3205;42.666;23.264;2024-02-15T00:56:28;94837.78;;;4.82;100.00
6345;BME280;3205;42.666;23.264;2024-02-15T00:58:56;94839.34;;;4.83;100.00
6345;BME280;3205;42.666;23.264;2024-02-15T01:01:22;94838.09;;;4.80;100.00
6345;BME280;3205;42.666;23.264;2024-02-15T01:03:49;94834.72;;;4.80;100.00
6345;BME280;3205;42.666;23.264;2024-02-15T01:06:15;94831.78;;;4.81;100.00
6345;BME280;3205;42.666;23.264;2024-02-15T01:08:41;94836.06;;;4.77;100.00
6345;BME280;3205;42.666;23.264;2024-02-15T01:11:08;94841.25;;;4.96;100.00
6345;BME280;3205;42.666;23.264;2024-02-15T01:13:35;94838.41;;;4.92;100.00
6345;BME280;3205;42.666;23.264;2024-02-15T01:16:01;94836.19;;;4.86;100.00
6345;BME280;3205;42.666;23.264;2024-02-15T01:18:28;94839.88;;;4.85;100.00
6345;BME280;3205;42.666;23.264;2024-02-15T01:20:55;94825.13;;;4.89;100.00
6345;BME280;3205;42.666;23.264;2024-02-15T01:23:21;94823.84;;;4.86;100.00
6345;BME280;3205;42.666;23.264;2024-02-15T01:25:48;94830.94;;;4.86;100.00
6345;BME280;3205;42.666;23.264;2024-02-15T01:28:15;94828.22;;;4.77;100.00
6345;BME280;3205;42.666;23.264;2024-02-15T01:30:41;94826.66;;;4.76;100.00
6345;BME280;3205;42.666;23.264;2024-02-15T01:33:09;94829.81;;;4.73;100.00
6345;BME280;3205;42.666;23.264;2024-02-15T01:35:36;94832.22;;;4.70;100.00
6345;BME280;3205;42.666;23.264;2024-02-15T01:38:02;94829.91;;;4.68;100.00
6345;BME280;3205;42.666;23.264;2024-02-15T01:40:29;94826.22;;;4.69;100.00
6345;BME280;3205;42.666;23.264;2024-02-15T01:42:55;94823.03;;;4.72;100.00
6345;BME280;3205;42.666;23.264;2024-02-15T01:45:24;94826.91;;;4.75;100.00
6345;BME280;3205;42.666;23.264;2024-02-15T01:47:51;94828.25;;;4.72;100.00
6345;BME280;3205;42.666;23.264;2024-02-15T01:50:18;94826.13;;;4.74;100.00
6345;BME280;3205;42.666;23.264;2024-02-15T01:52:45;94835.38;;;4.85;100.00
6345;BME280;3205;42.666;23.264;2024-02-15T01:55:13;94838.47;;;4.74;100.00
6345;BME280;3205;42.666;23.264;2024-02-15T01:57:43;94835.66;;;4.70;100.00
6345;BME280;3205;42.666;23.264;2024-02-15T02:00:14;94834.94;;;4.65;100.00
6345;BME280;3205;42.666;23.264;2024-02-15T02:02:42;94827.06;;;4.65;100.00
6345;BME280;3205;42.666;23.264;2024-02-15T02:05:10;94839.03;;;4.71;100.00
6345;BME280;3205;42.666;23.264;2024-02-15T02:07:37;94829.72;;;4.78;100.00
6345;BME280;3205;42.666;23.264;2024-02-15T02:10:04;94828.75;;;4.74;100.00
6345;BME280;3205;42.666;23.264;2024-02-15T02:12:31;94838.25;;;4.70;100.00
6345;BME280;3205;42.666;23.264;2024-02-15T02:14:57;94835.44;;;4.67;100.00
6345;BME280;3205;42.666;23.264;2024-02-15T02:17:24;94841.94;;;4.69;100.00
6345;BME280;3205;42.666;23.264;2024-02-15T02:19:51;94845.97;;;4.62;100.00
6345;BME280;3205;42.666;23.264;2024-02-15T02:22:18;94841.31;;;4.59;100.00
6345;BME280;3205;42.666;23.264;2024-02-15T02:24:57;94844.88;;;4.81;100.00
6345;BME280;3205;42.666;23.264;2024-02-15T02:27:24;94837.13;;;4.76;100.00
6345;BME280;3205;42.666;23.264;2024-02-15T02:29:52;94836.69;;;4.69;100.00
6345;BME280;3205;42.666;23.264;2024-02-15T02:32:18;94836.84;;;4.59;100.00
6345;BME280;3205;42.666;23.264;2024-02-15T02:34:45;94844.91;;;4.63;100.00
6345;BME280;3205;42.666;23.264;2024-02-15T02:37:11;94845.28;;;4.56;100.00
6345;BME280;3205;42.666;23.264;2024-02-15T02:39:39;94845.28;;;4.56;100.00
6345;BME280;3205;42.666;23.264;2024-02-15T02:42:06;94845.75;;;4.58;100.00
6345;BME280;3205;42.666;23.264;2024-02-15T02:44:33;94843.34;;;4.62;100.00
6345;BME280;3205;42.666;23.264;2024-02-15T02:46:59;94849.00;;;4.69;100.00
6345;BME280;3205;42.666;23.264;2024-02-15T02:49:26;94849.41;;;4.76;100.00
6345;BME280;3205;42.666;23.264;2024-02-15T02:51:54;94847.59;;;4.76;100.00
6345;BME280;3205;42.666;23.264;2024-02-15T02:54:20;94856.38;;;4.67;100.00
6345;BME280;3205;42.666;23.264;2024-02-15T02:56:46;94855.44;;;4.58;100.00
6345;BME280;3205;42.666;23.264;2024-02-15T02:59:13;94854.94;;;4.56;100.00
6345;BME280;3205;42.666;23.264;2024-02-15T03:05:03;94848.38;;;4.58;100.00
6345;BME280;3205;42.666;23.264;2024-02-15T03:07:33;94845.28;;;4.56;100.00
6345;BME280;3205;42.666;23.264;2024-02-15T03:09:59;94855.66;;;4.43;100.00
6345;BME280;3205;42.666;23.264;2024-02-15T03:12:26;94850.56;;;4.51;100.00
6345;BME280;3205;42.666;23.264;2024-02-15T03:14:53;94849.66;;;4.61;100.00
6345;BME280;3205;42.666;23.264;2024-02-15T03:17:20;94856.63;;;4.65;100.00
6345;BME280;3205;42.666;23.264;2024-02-15T03:19:47;94853.56;;;4.63;100.00
6345;BME280;3205;42.666;23.264;2024-02-15T03:22:14;94863.31;;;4.58;100.00
6345;BME280;3205;42.666;23.264;2024-02-15T03:24:40;94863.38;;;4.53;100.00
6345;BME280;3205;42.666;23.264;2024-02-15T03:27:07;94860.59;;;4.63;100.00
6345;BME280;3205;42.666;23.264;2024-02-15T03:29:35;94856.22;;;4.58;100.00
6345;BME280;3205;42.666;23.264;2024-02-15T03:32:03;94860.97;;;4.56;100.00
6345;BME280;3205;42.666;23.264;2024-02-15T03:34:32;94855.75;;;4.56;100.00
6345;BME280;3205;42.666;23.264;2024-02-15T03:36:58;94865.50;;;4.51;100.00
6345;BME280;3205;42.666;23.264;2024-02-15T03:39:24;94870.00;;;4.45;100.00
6345;BME280;3205;42.666;23.264;2024-02-15T03:41:51;94870.31;;;4.44;100.00
6345;BME280;3205;42.666;23.264;2024-02-15T03:44:19;94860.38;;;4.41;100.00
6345;BME280;3205;42.666;23.264;2024-02-15T03:46:45;94860.53;;;4.31;100.00
6345;BME280;3205;42.666;23.264;2024-02-15T03:49:17;94872.16;;;4.43;100.00
6345;BME280;3205;42.666;23.264;2024-02-15T03:51:43;94869.09;;;4.37;100.00
6345;BME280;3205;42.666;23.264;2024-02-15T03:54:10;94868.25;;;4.41;100.00
6345;BME280;3205;42.666;23.264;2024-02-15T03:56:36;94875.75;;;4.47;100.00
6345;BME280;3205;42.666;23.264;2024-02-15T03:59:03;94872.06;;;4.48;100.00
6345;BME280;3205;42.666;23.264;2024-02-15T04:01:31;94870.00;;;4.45;100.00
6345;BME280;3205;42.666;23.264;2024-02-15T04:03:59;94876.38;;;4.58;100.00
6345;BME280;3205;42.666;23.264;2024-02-15T04:06:28;94877.31;;;4.48;100.00
6345;BME280;3205;42.666;23.264;2024-02-15T04:08:56;94872.41;;;4.42;100.00
6345;BME280;3205;42.666;23.264;2024-02-15T04:11:22;94880.19;;;4.29;100.00
6345;BME280;3205;42.666;23.264;2024-02-15T04:13:48;94874.34;;;4.37;100.00
6345;BME280;3205;42.666;23.264;2024-02-15T04:16:15;94879.97;;;4.25;100.00
6345;BME280;3205;42.666;23.264;2024-02-15T04:18:42;94876.31;;;4.26;100.00
6345;BME280;3205;42.666;23.264;2024-02-15T04:21:10;94879.69;;;4.27;100.00
6345;BME280;3205;42.666;23.264;2024-02-15T04:23:37;94883.97;;;4.18;100.00
6345;BME280;3205;42.666;23.264;2024-02-15T04:26:04;94878.53;;;4.14;100.00
6345;BME280;3205;42.666;23.264;2024-02-15T04:28:31;94886.13;;;4.16;100.00
6345;BME280;3205;42.666;23.264;2024-02-15T04:30:59;94879.31;;;4.15;100.00
6345;BME280;3205;42.666;23.264;2024-02-15T04:33:25;94887.69;;;4.17;100.00
6345;BME280;3205;42.666;23.264;2024-02-15T04:35:51;94887.72;;;4.12;100.00
6345;BME280;3205;42.666;23.264;2024-02-15T04:38:18;94885.59;;;4.14;100.00
6345;BME280;3205;42.666;23.264;2024-02-15T04:40:45;94890.28;;;4.17;100.00
6345;BME280;3205;42.666;23.264;2024-02-15T04:43:11;94892.34;;;4.20;100.00
6345;BME280;3205;42.666;23.264;2024-02-15T04:45:38;94895.09;;;4.10;100.00
6345;BME280;3205;42.666;23.264;2024-02-15T04:48:05;94896.19;;;4.04;100.00
6345;BME280;3205;42.666;23.264;2024-02-15T04:50:32;94897.06;;;4.18;100.00
6345;BME280;3205;42.666;23.264;2024-02-15T04:52:59;94896.41;;;4.07;100.00
6345;BME280;3205;42.666;23.264;2024-02-15T04:55:25;94897.97;;;4.08;100.00
6345;BME280;3205;42.666;23.264;2024-02-15T04:57:55;94897.63;;;4.15;100.00
6345;BME280;3205;42.666;23.264;2024-02-15T05:00:22;94908.19;;;4.05;100.00
6345;BME280;3205;42.666;23.264;2024-02-15T05:02:51;94900.56;;;4.08;100.00
6345;BME280;3205;42.666;23.264;2024-02-15T05:05:17;94910.88;;;4.00;100.00
6345;BME280;3205;42.666;23.264;2024-02-15T05:07:44;94913.50;;;4.00;100.00
6345;BME280;3205;42.666;23.264;2024-02-15T05:10:10;94915.34;;;3.99;100.00
6345;BME280;3205;42.666;23.264;2024-02-15T05:12:38;94917.69;;;4.01;100.00
6345;BME280;3205;42.666;23.264;2024-02-15T05:15:06;94922.06;;;4.05;100.00
6345;BME280;3205;42.666;23.264;2024-02-15T05:17:36;94929.13;;;4.05;100.00
6345;BME280;3205;42.666;23.264;2024-02-15T05:20:02;94926.06;;;3.98;100.00
6345;BME280;3205;42.666;23.264;2024-02-15T05:22:36;94929.13;;;4.05;100.00
6345;BME280;3205;42.666;23.264;2024-02-15T05:25:02;94929.34;;;4.08;100.00
6345;BME280;3205;42.666;23.264;2024-02-15T05:27:31;94924.63;;;4.10;100.00
6345;BME280;3205;42.666;23.264;2024-02-15T05:29:57;94930.06;;;4.14;100.00
6345;BME280;3205;42.666;23.264;2024-02-15T05:32:24;94924.78;;;4.19;100.00
6345;BME280;3205;42.666;23.264;2024-02-15T05:34:52;94930.91;;;4.09;100.00
6345;BME280;3205;42.666;23.264;2024-02-15T05:37:20;94931.94;;;4.13;100.00
6345;BME280;3205;42.666;23.264;2024-02-15T05:39:47;94941.53;;;4.18;100.00
6345;BME280;3205;42.666;23.264;2024-02-15T05:42:17;94947.34;;;4.15;100.00
6345;BME280;3205;42.666;23.264;2024-02-15T05:44:43;94941.59;;;4.13;100.00
6345;BME280;3205;42.666;23.264;2024-02-15T05:47:09;94944.03;;;4.28;100.00
6345;BME280;3205;42.666;23.264;2024-02-15T05:49:37;94940.84;;;4.31;100.00
6345;BME280;3205;42.666;23.264;2024-02-15T05:52:04;94954.06;;;4.21;100.00
6345;BME280;3205;42.666;23.264;2024-02-15T05:54:30;94946.50;;;4.19;100.00
6345;BME280;3205;42.666;23.264;2024-02-15T05:56:57;94952.94;;;4.27;100.00
6345;BME280;3205;42.666;23.264;2024-02-15T05:59:26;94955.03;;;4.30;100.00
6345;BME280;3205;42.666;23.264;2024-02-15T06:01:52;94957.13;;;4.28;100.00
6345;BME280;3205;42.666;23.264;2024-02-15T06:04:18;94954.94;;;4.35;100.00
6345;BME280;3205;42.666;23.264;2024-02-15T06:06:45;94958.34;;;4.35;100.00
6345;BME280;3205;42.666;23.264;2024-02-15T06:09:14;94967.03;;;4.31;100.00
6345;BME280;3205;42.666;23.264;2024-02-15T06:11:40;94962.59;;;4.31;100.00
6345;BME280;3205;42.666;23.264;2024-02-15T06:14:06;94960.72;;;4.32;100.00
6345;BME280;3205;42.666;23.264;2024-02-15T06:16:33;94966.19;;;4.35;100.00
6345;BME280;3205;42.666;23.264;2024-02-15T06:18:59;94964.75;;;4.47;100.00
6345;BME280;3205;42.666;23.264;2024-02-15T06:21:26;94960.50;;;4.51;100.00
6345;BME280;3205;42.666;23.264;2024-02-15T06:23:54;94967.72;;;4.59;100.00
6345;BME280;3205;42.666;23.264;2024-02-15T06:26:21;94970.84;;;4.61;100.00
6345;BME280;3205;42.666;23.264;2024-02-15T06:28:47;94972.34;;;4.67;100.00
6345;BME280;3205;42.666;23.264;2024-02-15T06:31:31;94983.41;;;4.83;100.00
6345;BME280;3205;42.666;23.264;2024-02-15T06:34:16;94978.81;;;4.93;100.00
6345;BME280;3205;42.666;23.264;2024-02-15T06:37:00;94982.16;;;5.17;100.00
6345;BME280;3205;42.666;23.264;2024-02-15T06:39:45;94987.53;;;5.25;100.00
6345;BME280;3205;42.666;23.264;2024-02-15T06:42:13;94991.31;;;5.33;100.00
6345;BME280;3205;42.666;23.264;2024-02-15T06:44:41;94976.03;;;5.40;100.00
6345;BME280;3205;42.666;23.264;2024-02-15T06:47:07;94993.84;;;5.56;100.00
6345;BME280;3205;42.666;23.264;2024-02-15T06:49:36;94991.78;;;5.72;100.00
6345;BME280;3205;42.666;23.264;2024-02-15T06:52:05;94991.44;;;5.78;100.00
6345;BME280;3205;42.666;23.264;2024-02-15T06:54:33;94996.28;;;6.03;100.00
6345;BME280;3205;42.666;23.264;2024-02-15T06:57:00;94998.63;;;6.31;100.00
6345;BME280;3205;42.666;23.264;2024-02-15T06:59:28;94998.06;;;6.61;100.00
6345;BME280;3205;42.666;23.264;2024-02-15T07:01:54;94998.34;;;6.73;100.00
6345;BME280;3205;42.666;23.264;2024-02-15T07:04:20;94989.78;;;6.81;100.00
6345;BME280;3205;42.666;23.264;2024-02-15T07:06:48;94994.19;;;7.21;100.00
6345;BME280;3205;42.666;23.264;2024-02-15T07:09:15;94995.53;;;7.53;100.00
6345;BME280;3205;42.666;23.264;2024-02-15T07:11:43;94998.41;;;7.87;100.00
6345;BME280;3205;42.666;23.264;2024-02-15T07:14:10;95001.75;;;9.26;100.00
6345;BME280;3205;42.666;23.264;2024-02-15T07:16:36;94993.31;;;11.28;79.11
6345;BME280;3205;42.666;23.264;2024-02-15T07:19:02;94987.59;;;13.35;64.78
6345;BME280;3205;42.666;23.264;2024-02-15T07:21:29;94994.63;;;14.49;56.93
6345;BME280;3205;42.666;23.264;2024-02-15T07:23:57;94983.69;;;15.16;53.11
6345;BME280;3205;42.666;23.264;2024-02-15T07:26:24;94984.38;;;15.97;49.85
6345;BME280;3205;42.666;23.264;2024-02-15T07:28:51;94973.13;;;16.07;49.77
6345;BME280;3205;42.666;23.264;2024-02-15T07:31:19;94967.81;;;17.15;47.60
6345;BME280;3205;42.666;23.264;2024-02-15T07:33:47;94973.09;;;17.11;45.99
6345;BME280;3205;42.666;23.264;2024-02-15T07:36:13;94972.94;;;16.56;45.31
6345;BME280;3205;42.666;23.264;2024-02-15T07:38:39;94974.09;;;15.99;46.55
6345;BME280;3205;42.666;23.264;2024-02-15T07:41:06;94963.63;;;16.09;45.72
6345;BME280;3205;42.666;23.264;2024-02-15T07:43:32;94967.75;;;16.44;44.89
6345;BME280;3205;42.666;23.264;2024-02-15T07:45:59;94960.00;;;16.81;44.60
6345;BME280;3205;42.666;23.264;2024-02-15T07:48:26;94964.03;;;16.94;44.35
6345;BME280;3205;42.666;23.264;2024-02-15T07:50:52;94958.34;;;18.02;42.88
6345;BME280;3205;42.666;23.264;2024-02-15T07:53:19;94969.47;;;18.37;41.58
6345;BME280;3205;42.666;23.264;2024-02-15T07:55:47;94974.56;;;18.88;40.43
6345;BME280;3205;42.666;23.264;2024-02-15T07:58:15;94968.59;;;18.65;40.16
6345;BME280;3205;42.666;23.264;2024-02-15T08:00:45;94974.03;;;18.76;40.49
6345;BME280;3205;42.666;23.264;2024-02-15T08:03:11;94983.81;;;19.41;39.36
6345;BME280;3205;42.666;23.264;2024-02-15T08:05:40;94981.97;;;19.52;38.67
6345;BME280;3205;42.666;23.264;2024-02-15T08:08:07;94970.94;;;20.49;38.35
6345;BME280;3205;42.666;23.264;2024-02-15T08:10:33;94967.22;;;21.02;36.74
6345;BME280;3205;42.666;23.264;2024-02-15T08:12:59;94965.28;;;21.30;36.06
6345;BME280;3205;42.666;23.264;2024-02-15T08:15:26;94968.34;;;20.84;36.73
6345;BME280;3205;42.666;23.264;2024-02-15T08:17:53;94964.47;;;20.74;36.36
6345;BME280;3205;42.666;23.264;2024-02-15T08:20:20;94969.13;;;21.12;36.07
6345;BME280;3205;42.666;23.264;2024-02-15T08:22:48;94963.00;;;21.32;35.44
6345;BME280;3205;42.666;23.264;2024-02-15T08:25:14;94964.50;;;21.30;35.62
6345;BME280;3205;42.666;23.264;2024-02-15T08:27:42;94956.84;;;21.07;36.03
6345;BME280;3205;42.666;23.264;2024-02-15T08:30:11;94953.72;;;21.61;35.13
6345;BME280;3205;42.666;23.264;2024-02-15T08:32:37;94956.84;;;21.14;35.85
6345;BME280;3205;42.666;23.264;2024-02-15T08:35:05;94956.06;;;21.59;35.41
6345;BME280;3205;42.666;23.264;2024-02-15T08:37:32;94949.50;;;21.64;35.06
6345;BME280;3205;42.666;23.264;2024-02-15T08:40:01;94960.22;;;21.81;34.95
6345;BME280;3205;42.666;23.264;2024-02-15T08:42:27;94954.53;;;21.09;35.16
6345;BME280;3205;42.666;23.264;2024-02-15T08:44:54;94950.47;;;20.06;36.05
6345;BME280;3205;42.666;23.264;2024-02-15T08:47:21;94955.91;;;20.30;36.32
6345;BME280;3205;42.666;23.264;2024-02-15T08:49:47;94953.00;;;21.12;35.22
6345;BME280;3205;42.666;23.264;2024-02-15T08:52:13;94944.53;;;20.99;35.61
6345;BME280;3205;42.666;23.264;2024-02-15T08:54:39;94949.91;;;20.79;35.22
6345;BME280;3205;42.666;23.264;2024-02-15T08:57:07;94952.13;;;20.49;35.52
6345;BME280;3205;42.666;23.264;2024-02-15T08:59:34;94952.22;;;20.77;35.69
6345;BME280;3205;42.666;23.264;2024-02-15T09:02:00;94945.66;;;20.74;35.86
6345;BME280;3205;42.666;23.264;2024-02-15T09:04:26;94942.97;;;21.33;35.35
6345;BME280;3205;42.666;23.264;2024-02-15T09:06:52;94947.53;;;20.56;35.64
6345;BME280;3205;42.666;23.264;2024-02-15T09:09:19;94957.09;;;19.58;36.22
6345;BME280;3205;42.666;23.264;2024-02-15T09:11:45;94952.16;;;20.63;36.29
6345;BME280;3205;42.666;23.264;2024-02-15T09:14:12;94937.63;;;20.78;35.08
6345;BME280;3205;42.666;23.264;2024-02-15T09:16:38;94940.69;;;20.76;35.81
6345;BME280;3205;42.666;23.264;2024-02-15T09:19:05;94942.16;;;20.56;35.59
6345;BME280;3205;42.666;23.264;2024-02-15T09:21:31;94937.56;;;20.57;35.78
6345;BME280;3205;42.666;23.264;2024-02-15T09:23:59;94928.41;;;19.62;36.97
6345;BME280;3205;42.666;23.264;2024-02-15T09:26:25;94930.84;;;19.92;36.32
6345;BME280;3205;42.666;23.264;2024-02-15T09:28:53;94933.69;;;19.52;37.94
6345;BME280;3205;42.666;23.264;2024-02-15T09:31:20;94937.88;;;19.46;37.57
6345;BME280;3205;42.666;23.264;2024-02-15T09:33:47;94924.16;;;19.61;37.12
6345;BME280;3205;42.666;23.264;2024-02-15T09:36:13;94930.00;;;19.17;37.78
6345;BME280;3205;42.666;23.264;2024-02-15T09:38:41;94927.03;;;18.39;39.20
6345;BME280;3205;42.666;23.264;2024-02-15T09:41:07;94924.63;;;18.70;38.06
6345;BME280;3205;42.666;23.264;2024-02-15T09:43:34;94923.91;;;19.20;37.53
6345;BME280;3205;42.666;23.264;2024-02-15T09:46:01;94921.53;;;19.72;37.09
6345;BME280;3205;42.666;23.264;2024-02-15T09:48:32;94922.44;;;19.29;37.51
6345;BME280;3205;42.666;23.264;2024-02-15T09:51:00;94917.25;;;18.57;38.60
6345;BME280;3205;42.666;23.264;2024-02-15T09:53:28;94922.84;;;18.08;39.04
6345;BME280;3205;42.666;23.264;2024-02-15T09:55:54;94924.28;;;17.14;40.38
6345;BME280;3205;42.666;23.264;2024-02-15T09:58:29;94919.91;;;16.77;41.55
6345;BME280;3205;42.666;23.264;2024-02-15T10:01:00;94906.19;;;15.93;42.40
6345;BME280;3205;42.666;23.264;2024-02-15T10:03:32;94907.78;;;15.41;43.48
6345;BME280;3205;42.666;23.264;2024-02-15T10:05:59;94903.22;;;14.73;45.15
6345;BME280;3205;42.666;23.264;2024-02-15T10:08:25;94907.41;;;14.27;45.42
6345;BME280;3205;42.666;23.264;2024-02-15T10:11:05;94897.09;;;13.83;47.89
6345;BME280;3205;42.666;23.264;2024-02-15T10:13:33;94892.94;;;13.16;49.66
6345;BME280;3205;42.666;23.264;2024-02-15T10:15:59;94892.94;;;12.80;51.34
6345;BME280;3205;42.666;23.264;2024-02-15T10:18:40;94888.34;;;12.77;53.18
6345;BME280;3205;42.666;23.264;2024-02-15T10:21:06;94887.00;;;12.35;55.57
6345;BME280;3205;42.666;23.264;2024-02-15T10:23:32;94883.19;;;11.56;56.12
6345;BME280;3205;42.666;23.264;2024-02-15T10:26:00;94876.41;;;11.26;57.95
6345;BME280;3205;42.666;23.264;2024-02-15T10:28:27;94870.44;;;11.17;61.68
6345;BME280;3205;42.666;23.264;2024-02-15T10:30:54;94871.34;;;11.01;65.75
6345;BME280;3205;42.666;23.264;2024-02-15T10:33:26;94868.19;;;10.58;67.86
6345;BME280;3205;42.666;23.264;2024-02-15T10:36:05;94874.22;;;10.67;70.74
6345;BME280;3205;42.666;23.264;2024-02-15T10:38:32;94867.41;;;10.58;70.55
6345;BME280;3205;42.666;23.264;2024-02-15T10:41:03;94862.31;;;10.53;72.54
6345;BME280;3205;42.666;23.264;2024-02-15T10:43:31;94861.91;;;10.14;76.19
6345;BME280;3205;42.666;23.264;2024-02-15T10:45:58;94858.84;;;10.32;77.30
6345;BME280;3205;42.666;23.264;2024-02-15T10:48:25;94858.97;;;10.44;76.94
6345;BME280;3205;42.666;23.264;2024-02-15T10:50:52;94855.41;;;10.40;76.63
6345;BME280;3205;42.666;23.264;2024-02-15T10:53:26;94849.69;;;10.30;79.62
6345;BME280;3205;42.666;23.264;2024-02-15T10:55:57;94848.94;;;10.29;78.95
6345;BME280;3205;42.666;23.264;2024-02-15T10:58:29;94845.84;;;10.27;80.66
6345;BME280;3205;42.666;23.264;2024-02-15T11:00:59;94843.69;;;10.21;81.29
6345;BME280;3205;42.666;23.264;2024-02-15T11:03:33;94848.75;;;10.34;78.16
6345;BME280;3205;42.666;23.264;2024-02-15T11:06:02;94848.00;;;10.34;79.68
6345;BME280;3205;42.666;23.264;2024-02-15T11:08:32;94840.34;;;10.40;76.64
6345;BME280;3205;42.666;23.264;2024-02-15T11:10:59;94844.31;;;10.18;76.53
6345;BME280;3205;42.666;23.264;2024-02-15T11:13:27;94841.09;;;10.12;78.79
6345;BME280;3205;42.666;23.264;2024-02-15T11:15:55;94833.06;;;10.00;79.37
6345;BME280;3205;42.666;23.264;2024-02-15T11:18:44;94840.22;;;10.00;77.68
6345;BME280;3205;42.666;23.264;2024-02-15T11:21:10;94833.88;;;9.84;77.76
6345;BME280;3205;42.666;23.264;2024-02-15T11:23:37;94830.44;;;9.83;78.18
6345;BME280;3205;42.666;23.264;2024-02-15T11:26:08;94835.41;;;9.93;77.81
6345;BME280;3205;42.666;23.264;2024-02-15T11:28:43;94823.38;;;10.13;79.05
6345;BME280;3205;42.666;23.264;2024-02-15T11:34:41;94828.25;;;10.02;76.61
6345;BME280;3205;42.666;23.264;2024-02-15T11:37:09;94831.41;;;9.79;76.87
6345;BME280;3205;42.666;23.264;2024-02-15T11:39:42;94824.06;;;9.93;76.25
6345;BME280;3205;42.666;23.264;2024-02-15T11:42:28;94821.44;;;9.93;76.92
6345;BME280;3205;42.666;23.264;2024-02-15T11:45:03;94830.44;;;9.92;75.74
6345;BME280;3205;42.666;23.264;2024-02-15T11:47:32;94821.97;;;9.69;76.02
6345;BME280;3205;42.666;23.264;2024-02-15T11:50:00;94820.16;;;9.61;80.01
6345;BME280;3205;42.666;23.264;2024-02-15T11:52:28;94826.00;;;9.75;78.57
6345;BME280;3205;42.666;23.264;2024-02-15T11:55:04;94829.97;;;9.90;78.13
6345;BME280;3205;42.666;23.264;2024-02-15T11:57:30;94819.88;;;9.83;80.77
6345;BME280;3205;42.666;23.264;2024-02-15T12:00:04;94814.09;;;10.07;81.41
6345;BME280;3205;42.666;23.264;2024-02-15T12:03:01;94815.63;;;10.08;84.07
6345;BME280;3205;42.666;23.264;2024-02-15T12:05:45;94804.47;;;10.02;78.76
6345;BME280;3205;42.666;23.264;2024-02-15T12:08:30;94809.31;;;9.92;76.98
6345;BME280;3205;42.666;23.264;2024-02-15T12:11:15;94802.72;;;9.69;78.82
6345;BME280;3205;42.666;23.264;2024-02-15T12:17:23;94805.84;;;9.62;81.15
6345;BME280;3205;42.666;23.264;2024-02-15T12:20:07;94801.34;;;9.63;77.90
6345;BME280;3205;42.666;23.264;2024-02-15T12:22:39;94808.75;;;9.78;81.40
6345;BME280;3205;42.666;23.264;2024-02-15T12:25:07;94813.50;;;9.56;83.76
6345;BME280;3205;42.666;23.264;2024-02-15T12:27:38;94807.38;;;9.63;85.99
6345;BME280;3205;42.666;23.264;2024-02-15T12:30:05;94801.44;;;9.75;86.53
6345;BME280;3205;42.666;23.264;2024-02-15T12:32:34;94794.47;;;9.79;87.69
6345;BME280;3205;42.666;23.264;2024-02-15T12:35:10;94790.81;;;9.92;84.51
6345;BME280;3205;42.666;23.264;2024-02-15T12:37:41;94794.00;;;9.77;86.02
6345;BME280;3205;42.666;23.264;2024-02-15T12:40:11;94792.47;;;9.67;86.41
6345;BME280;3205;42.666;23.264;2024-02-15T12:42:42;94795.78;;;9.56;87.83
6345;BME280;3205;42.666;23.264;2024-02-15T12:45:15;94787.34;;;9.71;87.78
6345;BME280;3205;42.666;23.264;2024-02-15T12:47:43;94783.56;;;9.80;87.26
6345;BME280;3205;42.666;23.264;2024-02-15T12:50:16;94784.13;;;9.94;84.01
6345;BME280;3205;42.666;23.264;2024-02-15T12:52:45;94782.91;;;9.83;86.67
6345;BME280;3205;42.666;23.264;2024-02-15T12:55:14;94785.00;;;9.78;86.57
6345;BME280;3205;42.666;23.264;2024-02-15T12:57:43;94780.47;;;9.78;86.70
6345;BME280;3205;42.666;23.264;2024-02-15T13:00:12;94788.25;;;9.75;84.26
6345;BME280;3205;42.666;23.264;2024-02-15T13:02:44;94784.84;;;9.74;82.97
6345;BME280;3205;42.666;23.264;2024-02-15T13:05:11;94779.75;;;9.69;87.51
6345;BME280;3205;42.666;23.264;2024-02-15T13:07:37;94776.88;;;9.83;91.24
6345;BME280;3205;42.666;23.264;2024-02-15T13:10:04;94769.06;;;9.95;86.50
6345;BME280;3205;42.666;23.264;2024-02-15T13:12:33;94778.97;;;10.06;86.26
6345;BME280;3205;42.666;23.264;2024-02-15T13:15:02;94776.41;;;10.18;85.68
6345;BME280;3205;42.666;23.264;2024-02-15T13:17:29;94774.28;;;10.12;82.40
6345;BME280;3205;42.666;23.264;2024-02-15T13:19:56;94776.94;;;10.12;84.35
6345;BME280;3205;42.666;23.264;2024-02-15T13:22:30;94782.84;;;10.09;85.41
6345;BME280;3205;42.666;23.264;2024-02-15T13:24:56;94771.31;;;10.13;84.60
6345;BME280;3205;42.666;23.264;2024-02-15T13:27:23;94776.69;;;10.25;81.18